| time (UTC) | temp C | wind direction | speed KPH | gust KPH | rain 1hr cm | rain 24hr cm | rain mn cm | humidity % | barometer mb |
| 20260506161406 | 20 | 343 | 29.0 | 46.7 | 0.00 | 0.00 | 0.00 | 86 | 1011.8 |
| 20260506160907 | 21 | 337 | 25.7 | 46.7 | 0.00 | 0.00 | 0.00 | 86 | 1011.7 |
| 20260506160406 | 22 | 321 | 27.4 | 46.7 | 0.00 | 0.00 | 0.00 | 84 | 1011.5 |
| 20260506155906 | 23 | 345 | 20.9 | 40.2 | 0.00 | 0.00 | 0.00 | 82 | 1011.2 |
| 20260506155405 | 24 | 91 | 4.8 | 14.5 | 0.00 | 0.00 | 0.00 | 89 | 1011.2 |
| 20260506154906 | 24 | 108 | 8.0 | 14.5 | 0.00 | 0.00 | 0.00 | 89 | 1011.2 |
| 20260506154405 | 24 | 98 | 8.0 | 12.9 | 0.00 | 0.00 | 0.00 | 89 | 1011.0 |
| 20260506153905 | 24 | 57 | 4.8 | 12.9 | 0.00 | 0.00 | 0.00 | 89 | 1011.0 |
| 20260506153406 | 24 | 79 | 4.8 | 8.0 | 0.00 | 0.00 | 0.00 | 89 | 1010.9 |
| 20260506152906 | 24 | 75 | 4.8 | 8.0 | 0.00 | 0.00 | 0.00 | 89 | 1010.7 |
| 20260506152406 | 24 | 134 | 4.8 | 12.9 | 0.00 | 0.00 | 0.00 | 89 | 1010.5 |
| 20260506151406 | 24 | 97 | 6.4 | 9.7 | 0.00 | 0.00 | 0.00 | 89 | 1010.3 |
| 20260506150905 | 24 | 114 | 4.8 | 9.7 | 0.00 | 0.00 | 0.00 | 89 | 1010.2 |
| 20260506150405 | 24 | 145 | 3.2 | 12.9 | 0.00 | 0.00 | 0.00 | 89 | 1010.0 |
| 20260506145906 | 24 | 128 | 8.0 | 12.9 | 0.00 | 0.00 | 0.00 | 89 | 1009.9 |
| 20260506144906 | 24 | 138 | 4.8 | 12.9 | 0.00 | 0.00 | 0.00 | 90 | 1009.7 |
| 20260506144406 | 24 | 159 | 4.8 | 14.5 | 0.00 | 0.00 | 0.00 | 90 | 1009.8 |
| 20260506143906 | 24 | 128 | 6.4 | 19.3 | 0.00 | 0.00 | 0.00 | 89 | 1009.8 |
| 20260506143405 | 24 | 185 | 4.8 | 19.3 | 0.00 | 0.00 | 0.00 | 90 | 1009.5 |
| 20260506142906 | 24 | 124 | 8.0 | 19.3 | 0.00 | 0.00 | 0.00 | 90 | 1009.4 |
| 20260506142406 | 24 | 137 | 11.3 | 19.3 | 0.00 | 0.00 | 0.00 | 91 | 1009.2 |
| 20260506141907 | 23 | 125 | 11.3 | 19.3 | 0.00 | 0.00 | 0.00 | 91 | 1009.2 |
| 20260506141406 | 23 | 134 | 9.7 | 19.3 | 0.00 | 0.00 | 0.00 | 91 | 1009.7 |
| 20260506140903 | 23 | 127 | 6.4 | 11.3 | 0.00 | 0.00 | 0.00 | 91 | 1009.7 |
| 20260506140403 | 23 | 110 | 4.8 | 8.0 | 0.00 | 0.00 | 0.00 | 91 | 1009.8 |
| 20260506135903 | 23 | 113 | 3.2 | 14.5 | 0.00 | 0.00 | 0.00 | 91 | 1009.7 |
| 20260506135404 | 23 | 130 | 4.8 | 14.5 | 0.00 | 0.00 | 0.00 | 91 | 1009.2 |
| 20260506134903 | 23 | 123 | 8.0 | 19.3 | 0.00 | 0.00 | 0.00 | 92 | 1008.8 |
| 20260506134403 | 23 | 130 | 9.7 | 19.3 | 0.00 | 0.00 | 0.00 | 92 | 1008.8 |
| 20260506133903 | 23 | 125 | 8.0 | 19.3 | 0.00 | 0.00 | 0.00 | 92 | 1008.9 |
| 20260506133403 | 23 | 128 | 9.7 | 20.9 | 0.00 | 0.00 | 0.00 | 92 | 1008.8 |
| 20260506132903 | 23 | 139 | 9.7 | 20.9 | 0.00 | 0.00 | 0.00 | 92 | 1008.7 |
| 20260506132403 | 23 | 123 | 9.7 | 19.3 | 0.00 | 0.00 | 0.00 | 92 | 1008.8 |
| 20260506131903 | 23 | 128 | 9.7 | 19.3 | 0.00 | 0.00 | 0.00 | 92 | 1008.8 |
| 20260506131403 | 23 | 124 | 9.7 | 19.3 | 0.00 | 0.00 | 0.00 | 92 | 1008.8 |
| 20260506130904 | 23 | 122 | 9.7 | 19.3 | 0.00 | 0.00 | 0.00 | 92 | 1008.7 |
| 20260506130403 | 23 | 124 | 11.3 | 19.3 | 0.00 | 0.00 | 0.00 | 92 | 1008.5 |
| 20260506125404 | 23 | 128 | 9.7 | 19.3 | 0.00 | 0.00 | 0.00 | 92 | 1008.5 |
| 20260506124903 | 23 | 130 | 9.7 | 19.3 | 0.00 | 0.00 | 0.00 | 92 | 1008.5 |
| 20260506124404 | 23 | 125 | 8.0 | 14.5 | 0.00 | 0.00 | 0.00 | 92 | 1008.4 |
| 20260506123903 | 23 | 120 | 8.0 | 12.9 | 0.00 | 0.00 | 0.00 | 92 | 1008.5 |
| 20260506123404 | 23 | 128 | 6.4 | 11.3 | 0.00 | 0.00 | 0.00 | 92 | 1008.5 |
| 20260506122404 | 23 | 124 | 4.8 | 9.7 | 0.00 | 0.00 | 0.00 | 92 | 1008.5 |
| 20260506121904 | 23 | 121 | 3.2 | 8.0 | 0.00 | 0.00 | 0.00 | 92 | 1008.5 |
| 20260506121403 | 23 | 123 | 4.8 | 8.0 | 0.00 | 0.00 | 0.00 | 92 | 1008.6 |
| 20260506120904 | 23 | 116 | 3.2 | 8.0 | 0.00 | 0.00 | 0.00 | 92 | 1008.5 |
| 20260506120404 | 23 | 123 | 4.8 | 8.0 | 0.00 | 0.00 | 0.00 | 92 | 1008.5 |
| 20260506115904 | 23 | 123 | 3.2 | 8.0 | 0.00 | 0.00 | 0.00 | 92 | 1008.4 |
| 20260506115403 | 23 | 112 | 4.8 | 8.0 | 0.00 | 0.00 | 0.00 | 91 | 1008.3 |
| 20260506114404 | 23 | 128 | 4.8 | 4.8 | 0.00 | 0.00 | 0.00 | 91 | 1008.4 |
| 20260506113905 | 23 | 123 | 1.6 | 8.0 | 0.00 | 0.00 | 0.00 | 91 | 1008.4 |
| 20260506113403 | 23 | 132 | 3.2 | 8.0 | 0.00 | 0.00 | 0.00 | 91 | 1008.4 |
| 20260506112904 | 23 | 127 | 3.2 | 8.0 | 0.00 | 0.00 | 0.00 | 91 | 1008.4 |
| 20260506112404 | 23 | 117 | 4.8 | 8.0 | 0.00 | 0.00 | 0.00 | 91 | 1008.4 |
| 20260506111904 | 23 | 111 | 4.8 | 8.0 | 0.00 | 0.00 | 0.00 | 91 | 1008.4 |
| 20260506111403 | 23 | 124 | 3.2 | 8.0 | 0.00 | 0.00 | 0.00 | 91 | 1008.4 |
| 20260506110904 | 23 | 123 | 3.2 | 8.0 | 0.00 | 0.00 | 0.00 | 91 | 1008.3 |
| 20260506110404 | 23 | 130 | 1.6 | 4.8 | 0.00 | 0.00 | 0.00 | 91 | 1008.2 |
| 20260506105904 | 23 | 128 | 3.2 | 8.0 | 0.00 | 0.00 | 0.00 | 91 | 1008.2 |
| 20260506105404 | 23 | 137 | 3.2 | 8.0 | 0.00 | 0.00 | 0.00 | 91 | 1008.1 |
| 20260506104903 | 23 | 124 | 3.2 | 14.5 | 0.00 | 0.00 | 0.00 | 91 | 1008.0 |
| 20260506104403 | 23 | 138 | 4.8 | 14.5 | 0.00 | 0.00 | 0.00 | 91 | 1008.0 |
| 20260506103903 | 23 | 139 | 4.8 | 14.5 | 0.00 | 0.00 | 0.00 | 91 | 1007.9 |
| 20260506103403 | 23 | 128 | 4.8 | 16.1 | 0.00 | 0.00 | 0.00 | 91 | 1007.9 |
| 20260506102903 | 23 | 155 | 8.0 | 16.1 | 0.00 | 0.00 | 0.00 | 91 | 1007.7 |
| 20260506102403 | 23 | 149 | 3.2 | 19.3 | 0.00 | 0.00 | 0.00 | 91 | 1007.7 |
| 20260506101404 | 23 | 133 | 8.0 | 19.3 | 0.00 | 0.00 | 0.00 | 91 | 1007.7 |
| 20260506100903 | 23 | 148 | 4.8 | 22.5 | 0.00 | 0.00 | 0.00 | 91 | 1007.7 |
| 20260506100403 | 23 | 142 | 8.0 | 22.5 | 0.00 | 0.00 | 0.00 | 91 | 1007.7 |
| 20260506095904 | 23 | 135 | 8.0 | 19.3 | 0.00 | 0.00 | 0.00 | 91 | 1007.6 |
| 20260506095404 | 23 | 156 | 8.0 | 20.9 | 0.00 | 0.00 | 0.00 | 91 | 1007.6 |
| 20260506094904 | 23 | 131 | 6.4 | 20.9 | 0.00 | 0.00 | 0.00 | 91 | 1007.6 |
| 20260506093905 | 23 | 138 | 8.0 | 16.1 | 0.00 | 0.00 | 0.00 | 91 | 1007.4 |
| 20260506093403 | 23 | 150 | 8.0 | 19.3 | 0.00 | 0.00 | 0.00 | 91 | 1007.4 |
| 20260506092404 | 23 | 142 | 9.7 | 24.1 | 0.00 | 0.00 | 0.00 | 91 | 1007.3 |
| 20260506091904 | 23 | 131 | 9.7 | 24.1 | 0.00 | 0.00 | 0.00 | 91 | 1007.3 |
| 20260506091404 | 23 | 154 | 9.7 | 24.1 | 0.00 | 0.00 | 0.00 | 91 | 1007.3 |
| 20260506090905 | 23 | 147 | 9.7 | 20.9 | 0.00 | 0.00 | 0.00 | 91 | 1007.2 |
| 20260506090404 | 23 | 131 | 8.0 | 20.9 | 0.00 | 0.00 | 0.00 | 91 | 1007.1 |
| 20260506085904 | 23 | 156 | 9.7 | 20.9 | 0.00 | 0.00 | 0.00 | 91 | 1007.2 |
| 20260506085404 | 23 | 141 | 8.0 | 19.3 | 0.00 | 0.00 | 0.00 | 91 | 1007.2 |
| 20260506084904 | 23 | 128 | 8.0 | 19.3 | 0.00 | 0.00 | 0.00 | 91 | 1007.1 |
| 20260506084404 | 23 | 139 | 6.4 | 19.3 | 0.00 | 0.00 | 0.00 | 91 | 1007.2 |
| 20260506083904 | 23 | 120 | 6.4 | 19.3 | 0.00 | 0.00 | 0.00 | 91 | 1007.2 |
| 20260506083404 | 23 | 137 | 8.0 | 22.5 | 0.00 | 0.00 | 0.00 | 91 | 1007.2 |
| 20260506082905 | 23 | 149 | 11.3 | 22.5 | 0.00 | 0.00 | 0.00 | 91 | 1007.2 |
| 20260506082405 | 23 | 152 | 9.7 | 22.5 | 0.00 | 0.00 | 0.00 | 91 | 1007.3 |
| 20260506081904 | 23 | 140 | 11.3 | 22.5 | 0.00 | 0.00 | 0.00 | 91 | 1007.2 |
| 20260506073405 | 23 | 143 | 11.3 | 25.7 | 0.00 | 0.00 | 0.00 | 90 | 1007.6 |
| 20260506072404 | 23 | 143 | 9.7 | 22.5 | 0.00 | 0.00 | 0.00 | 90 | 1007.6 |
| 20260506071904 | 23 | 146 | 11.3 | 22.5 | 0.00 | 0.00 | 0.00 | 90 | 1007.7 |
| 20260506071404 | 23 | 140 | 11.3 | 27.4 | 0.00 | 0.00 | 0.00 | 90 | 1007.8 |
| 20260506070904 | 23 | 147 | 9.7 | 27.4 | 0.00 | 0.00 | 0.00 | 90 | 1007.7 |
| 20260506070404 | 23 | 140 | 9.7 | 27.4 | 0.00 | 0.00 | 0.00 | 90 | 1007.9 |
| 20260506062404 | 23 | 147 | 14.5 | 32.2 | 0.00 | 0.00 | 0.00 | 90 | 1007.7 |
| 20260506060904 | 23 | 149 | 14.5 | 37.0 | 0.00 | 0.00 | 0.00 | 90 | 1007.8 |
| 20260506060404 | 23 | 137 | 14.5 | 33.8 | 0.00 | 0.00 | 0.00 | 90 | 1007.8 |
| 20260506051404 | 24 | 141 | 14.5 | 25.7 | 0.00 | 0.00 | 0.00 | 89 | 1007.8 |
| 20260506044905 | 24 | 148 | 14.5 | 25.7 | 0.00 | 0.00 | 0.00 | 89 | 1007.9 |
| 20260506044405 | 24 | 143 | 9.7 | 22.5 | 0.00 | 0.00 | 0.00 | 89 | 1007.9 |
| 20260506043904 | 24 | 148 | 11.3 | 22.5 | 0.00 | 0.00 | 0.00 | 89 | 1007.9 |
| 20260506043404 | 24 | 138 | 11.3 | 20.9 | 0.00 | 0.00 | 0.00 | 88 | 1007.9 |
| 20260506042904 | 24 | 142 | 9.7 | 32.2 | 0.00 | 0.00 | 0.00 | 88 | 1007.9 |
| 20260506042404 | 24 | 143 | 14.5 | 32.2 | 0.00 | 0.00 | 0.00 | 88 | 1007.7 |
| 20260506041904 | 24 | 141 | 12.9 | 32.2 | 0.00 | 0.00 | 0.00 | 88 | 1007.6 |
| 20260506041405 | 24 | 137 | 14.5 | 32.2 | 0.00 | 0.00 | 0.00 | 88 | 1007.7 |
| 20260506040904 | 24 | 134 | 11.3 | 32.2 | 0.00 | 0.00 | 0.00 | 88 | 1007.7 |
| 20260506040405 | 24 | 130 | 14.5 | 32.2 | 0.00 | 0.00 | 0.00 | 88 | 1007.6 |
| 20260506035904 | 24 | 137 | 16.1 | 29.0 | 0.00 | 0.00 | 0.00 | 88 | 1007.5 |
| 20260506035404 | 24 | 136 | 16.1 | 29.0 | 0.00 | 0.00 | 0.00 | 88 | 1007.4 |
| 20260506034904 | 24 | 135 | 12.9 | 25.7 | 0.00 | 0.00 | 0.00 | 88 | 1007.4 |
| 20260506034405 | 24 | 130 | 11.3 | 25.7 | 0.00 | 0.00 | 0.00 | 88 | 1007.4 |
| 20260506033905 | 24 | 133 | 11.3 | 24.1 | 0.00 | 0.00 | 0.00 | 88 | 1007.3 |
| 20260506033405 | 24 | 140 | 14.5 | 25.7 | 0.00 | 0.00 | 0.00 | 88 | 1007.2 |
| 20260506032405 | 24 | 139 | 11.3 | 24.1 | 0.00 | 0.00 | 0.00 | 88 | 1007.0 |
| 20260506031405 | 24 | 139 | 11.3 | 20.9 | 0.00 | 0.00 | 0.00 | 87 | 1007.0 |
| 20260506030904 | 24 | 138 | 9.7 | 19.3 | 0.00 | 0.00 | 0.00 | 87 | 1007.0 |
| 20260506030404 | 25 | 134 | 9.7 | 24.1 | 0.00 | 0.00 | 0.00 | 87 | 1006.8 |
| 20260506025906 | 25 | 135 | 11.3 | 24.1 | 0.00 | 0.00 | 0.00 | 86 | 1006.9 |
| 20260506024904 | 25 | 131 | 11.3 | 24.1 | 0.00 | 0.00 | 0.00 | 86 | 1006.7 |
| 20260506024404 | 25 | 130 | 12.9 | 20.9 | 0.00 | 0.00 | 0.00 | 85 | 1006.6 |
| 20260506023905 | 25 | 143 | 11.3 | 20.9 | 0.00 | 0.00 | 0.00 | 85 | 1006.5 |
| 20260506023409 | 25 | 137 | 9.7 | 19.3 | 0.00 | 0.00 | 0.00 | 85 | 1006.3 |
| 20260506022906 | 25 | 130 | 11.3 | 19.3 | 0.00 | 0.00 | 0.00 | 84 | 1006.2 |
| 20260506022404 | 25 | 137 | 9.7 | 24.1 | 0.00 | 0.00 | 0.00 | 84 | 1006.1 |
| 20260506021904 | 25 | 130 | 12.9 | 24.1 | 0.00 | 0.00 | 0.00 | 84 | 1006.0 |
| 20260506021405 | 25 | 134 | 11.3 | 22.5 | 0.00 | 0.00 | 0.00 | 84 | 1005.9 |
| 20260506020905 | 25 | 129 | 14.5 | 22.5 | 0.00 | 0.00 | 0.00 | 84 | 1005.9 |
| 20260506015904 | 25 | 131 | 11.3 | 24.1 | 0.00 | 0.00 | 0.00 | 83 | 1005.7 |
| 20260506015405 | 25 | 131 | 11.3 | 20.9 | 0.00 | 0.00 | 0.00 | 83 | 1005.7 |
| 20260506014904 | 25 | 134 | 9.7 | 16.1 | 0.00 | 0.00 | 0.00 | 83 | 1005.6 |
| 20260506014405 | 25 | 127 | 8.0 | 16.1 | 0.00 | 0.00 | 0.00 | 82 | 1005.7 |
| 20260506013906 | 25 | 128 | 9.7 | 19.3 | 0.00 | 0.00 | 0.00 | 82 | 1005.6 |
| 20260506013404 | 26 | 129 | 9.7 | 20.9 | 0.00 | 0.00 | 0.00 | 82 | 1005.5 |
| 20260506012905 | 26 | 129 | 9.7 | 20.9 | 0.00 | 0.00 | 0.00 | 81 | 1005.5 |
| 20260506012406 | 26 | 129 | 9.7 | 20.9 | 0.00 | 0.00 | 0.00 | 81 | 1005.7 |
| 20260506011905 | 26 | 134 | 9.7 | 16.1 | 0.00 | 0.00 | 0.00 | 80 | 1005.7 |
| 20260506010405 | 26 | 132 | 8.0 | 14.5 | 0.00 | 0.00 | 0.00 | 79 | 1005.7 |
| 20260506005905 | 26 | 136 | 8.0 | 12.9 | 0.00 | 0.00 | 0.00 | 78 | 1005.8 |
| 20260506004405 | 27 | 132 | 6.4 | 14.5 | 0.00 | 0.00 | 0.00 | 77 | 1005.7 |
| 20260506003905 | 27 | 133 | 6.4 | 14.5 | 0.00 | 0.00 | 0.00 | 76 | 1005.5 |
| 20260506003405 | 27 | 132 | 8.0 | 14.5 | 0.00 | 0.00 | 0.00 | 76 | 1005.5 |
| 20260506002905 | 27 | 130 | 4.8 | 12.9 | 0.00 | 0.00 | 0.00 | 75 | 1005.5 |
| 20260506002405 | 27 | 140 | 4.8 | 11.3 | 0.00 | 0.00 | 0.00 | 75 | 1005.5 |
| 20260506001904 | 27 | 141 | 6.4 | 12.9 | 0.00 | 0.00 | 0.00 | 75 | 1005.5 |
| 20260506001404 | 27 | 139 | 8.0 | 16.1 | 0.00 | 0.00 | 0.00 | 74 | 1005.5 |
| 20260506000405 | 27 | 140 | 9.7 | 19.3 | 0.00 | 0.00 | 0.00 | 74 | 1005.4 |
| 20260505235904 | 27 | 149 | 4.8 | 25.7 | 0.00 | 0.00 | 0.00 | 73 | 1005.4 |
| 20260505235405 | 27 | 148 | 11.3 | 25.7 | 0.00 | 0.00 | 0.00 | 73 | 1005.3 |
| 20260505234404 | 28 | 136 | 9.7 | 25.7 | 0.00 | 0.00 | 0.00 | 73 | 1005.1 |
| 20260505233905 | 28 | 145 | 11.3 | 25.7 | 0.00 | 0.00 | 0.00 | 73 | 1005.2 |
| 20260505233405 | 28 | 146 | 9.7 | 24.1 | 0.00 | 0.00 | 0.00 | 73 | 1005.3 |
| 20260505232905 | 28 | 138 | 9.7 | 24.1 | 0.00 | 0.00 | 0.00 | 73 | 1005.2 |
| 20260505232405 | 28 | 133 | 11.3 | 24.1 | 0.00 | 0.00 | 0.00 | 73 | 1005.2 |
| 20260505231405 | 28 | 133 | 11.3 | 32.2 | 0.00 | 0.00 | 0.00 | 70 | 1005.3 |
| 20260505230905 | 28 | 135 | 11.3 | 32.2 | 0.00 | 0.00 | 0.00 | 71 | 1005.2 |
| 20260505230405 | 28 | 132 | 9.7 | 25.7 | 0.00 | 0.00 | 0.00 | 72 | 1005.1 |
| 20260505225906 | 28 | 142 | 11.3 | 25.7 | 0.00 | 0.00 | 0.00 | 71 | 1005.1 |
| 20260505225405 | 28 | 136 | 11.3 | 20.9 | 0.00 | 0.00 | 0.00 | 71 | 1005.0 |
| 20260505224404 | 28 | 140 | 14.5 | 27.4 | 0.00 | 0.00 | 0.00 | 71 | 1005.1 |
| 20260505223905 | 28 | 142 | 12.9 | 29.0 | 0.00 | 0.00 | 0.00 | 71 | 1005.0 |
| 20260505223405 | 28 | 150 | 11.3 | 32.2 | 0.00 | 0.00 | 0.00 | 71 | 1005.0 |
| 20260505222905 | 28 | 144 | 12.9 | 32.2 | 0.00 | 0.00 | 0.00 | 70 | 1005.0 |
| 20260505222404 | 28 | 146 | 11.3 | 25.7 | 0.00 | 0.00 | 0.00 | 70 | 1005.0 |
| 20260505221906 | 28 | 131 | 11.3 | 32.2 | 0.00 | 0.00 | 0.00 | 70 | 1005.0 |
| 20260505221405 | 28 | 142 | 14.5 | 32.2 | 0.00 | 0.00 | 0.00 | 71 | 1005.0 |
| 20260505220905 | 28 | 138 | 14.5 | 27.4 | 0.00 | 0.00 | 0.00 | 68 | 1005.2 |
| 20260505220404 | 29 | 136 | 12.9 | 25.7 | 0.00 | 0.00 | 0.00 | 66 | 1005.1 |
| 20260505215906 | 29 | 108 | 9.7 | 27.4 | 0.00 | 0.00 | 0.00 | 70 | 1005.2 |
| 20260505214406 | 28 | 147 | 11.3 | 32.2 | 0.00 | 0.00 | 0.00 | 70 | 1005.4 |
| 20260505213905 | 28 | 132 | 14.5 | 32.2 | 0.00 | 0.00 | 0.00 | 69 | 1005.5 |
| 20260505212905 | 29 | 144 | 11.3 | 32.2 | 0.00 | 0.00 | 0.00 | 68 | 1005.6 |
| 20260505212405 | 29 | 146 | 16.1 | 32.2 | 0.00 | 0.00 | 0.00 | 66 | 1005.6 |
| 20260505210905 | 29 | 4 | 14.5 | 32.2 | 0.00 | 0.00 | 0.00 | 67 | 1005.7 |
| 20260505210405 | 28 | 158 | 16.1 | 32.2 | 0.00 | 0.00 | 0.00 | 69 | 1005.9 |
| 20260505205905 | 28 | 136 | 14.5 | 37.0 | 0.00 | 0.00 | 0.00 | 70 | 1005.9 |
| 20260505205405 | 28 | 139 | 12.9 | 37.0 | 0.00 | 0.00 | 0.00 | 69 | 1005.8 |
| 20260505204905 | 28 | 135 | 12.9 | 32.2 | 0.00 | 0.00 | 0.00 | 69 | 1006.0 |
| 20260505203906 | 28 | 128 | 9.7 | 32.2 | 0.00 | 0.00 | 0.00 | 70 | 1006.3 |
| 20260505203405 | 28 | 139 | 16.1 | 32.2 | 0.00 | 0.00 | 0.00 | 70 | 1006.3 |
| 20260505202905 | 28 | 226 | 9.7 | 27.4 | 0.00 | 0.00 | 0.00 | 70 | 1006.4 |
| 20260505202406 | 28 | 135 | 11.3 | 24.1 | 0.00 | 0.00 | 0.00 | 71 | 1006.5 |
| 20260505201906 | 28 | 125 | 11.3 | 25.7 | 0.00 | 0.00 | 0.00 | 70 | 1006.7 |
| 20260505201405 | 28 | 111 | 9.7 | 29.0 | 0.00 | 0.00 | 0.00 | 69 | 1006.7 |
| 20260505200905 | 28 | 137 | 17.7 | 33.8 | 0.00 | 0.00 | 0.00 | 70 | 1006.7 |
| 20260505195906 | 28 | 91 | 6.4 | 33.8 | 0.00 | 0.00 | 0.00 | 71 | 1006.6 |
| 20260505195406 | 28 | 155 | 17.7 | 37.0 | 0.00 | 0.00 | 0.00 | 71 | 1006.7 |
| 20260505194406 | 27 | 141 | 17.7 | 37.0 | 0.00 | 0.00 | 0.00 | 72 | 1006.9 |
| 20260505193905 | 28 | 150 | 9.7 | 24.1 | 0.00 | 0.00 | 0.00 | 71 | 1006.9 |
| 20260505192905 | 28 | 358 | 9.7 | 22.5 | 0.00 | 0.00 | 0.00 | 72 | 1007.0 |
| 20260505192406 | 28 | 271 | 9.7 | 29.0 | 0.00 | 0.00 | 0.00 | 72 | 1007.1 |
| 20260505191905 | 27 | 89 | 11.3 | 29.0 | 0.00 | 0.00 | 0.00 | 73 | 1007.2 |
| 20260505190906 | 27 | 113 | 4.8 | 32.2 | 0.00 | 0.00 | 0.00 | 73 | 1007.1 |
| 20260505190406 | 27 | 147 | 11.3 | 32.2 | 0.00 | 0.00 | 0.00 | 73 | 1007.2 |
| 20260505185906 | 27 | 136 | 9.7 | 25.7 | 0.00 | 0.00 | 0.00 | 74 | 1007.3 |
| 20260505185405 | 27 | 140 | 9.7 | 27.4 | 0.00 | 0.00 | 0.00 | 73 | 1007.4 |
| 20260505184907 | 27 | 141 | 14.5 | 27.4 | 0.00 | 0.00 | 0.00 | 72 | 1007.4 |
| 20260505184405 | 27 | 4 | 6.4 | 22.5 | 0.00 | 0.00 | 0.00 | 74 | 1007.3 |
| 20260505183905 | 27 | 233 | 8.0 | 24.1 | 0.00 | 0.00 | 0.00 | 74 | 1007.4 |
| 20260505183405 | 27 | 147 | 9.7 | 27.4 | 0.00 | 0.00 | 0.00 | 74 | 1007.5 |
| 20260505182906 | 26 | 200 | 11.3 | 27.4 | 0.00 | 0.00 | 0.00 | 76 | 1007.7 |
| 20260505181907 | 26 | 151 | 9.7 | 25.7 | 0.00 | 0.00 | 0.00 | 77 | 1007.7 |
| 20260505180905 | 26 | 123 | 8.0 | 27.4 | 0.00 | 0.00 | 0.00 | 77 | 1007.8 |
| 20260505180406 | 26 | 351 | 11.3 | 27.4 | 0.00 | 0.00 | 0.00 | 77 | 1007.9 |
| 20260505175905 | 26 | 86 | 8.0 | 19.3 | 0.00 | 0.00 | 0.00 | 78 | 1008.1 |
| 20260505175405 | 25 | 251 | 6.4 | 22.5 | 0.00 | 0.00 | 0.00 | 81 | 1008.1 |
| 20260505174907 | 25 | 153 | 8.0 | 24.1 | 0.00 | 0.00 | 0.00 | 81 | 1008.1 |
| 20260505174405 | 25 | 24 | 11.3 | 24.1 | 0.00 | 0.00 | 0.00 | 81 | 1008.0 |
| 20260505173405 | 24 | 358 | 11.3 | 22.5 | 0.00 | 0.00 | 0.00 | 83 | 1008.4 |
| 20260505172905 | 24 | 139 | 9.7 | 20.9 | 0.00 | 0.00 | 0.00 | 84 | 1008.4 |
| 20260505171905 | 23 | 136 | 8.0 | 22.5 | 0.00 | 0.00 | 0.00 | 85 | 1008.3 |
| 20260505171406 | 23 | 154 | 8.0 | 22.5 | 0.00 | 0.00 | 0.00 | 86 | 1008.4 |
| 20260505170906 | 23 | 321 | 8.0 | 22.5 | 0.00 | 0.00 | 0.00 | 86 | 1008.4 |
| 20260505170405 | 23 | 180 | 9.7 | 22.5 | 0.00 | 0.00 | 0.00 | 86 | 1008.4 |
| 20260505165405 | 23 | 332 | 8.0 | 24.1 | 0.00 | 0.00 | 0.00 | 86 | 1008.4 |
| 20260505164905 | 23 | 161 | 9.7 | 24.1 | 0.00 | 0.00 | 0.00 | 86 | 1008.3 |
| 20260505164406 | 23 | 144 | 9.7 | 24.1 | 0.00 | 0.00 | 0.00 | 87 | 1008.3 |
| 20260505163905 | 22 | 175 | 9.7 | 20.9 | 0.00 | 0.00 | 0.00 | 88 | 1008.4 |
| 20260505162907 | 22 | 206 | 8.0 | 19.3 | 0.00 | 0.00 | 0.00 | 88 | 1008.3 |
| 20260505162405 | 22 | 7 | 8.0 | 19.3 | 0.00 | 0.00 | 0.00 | 89 | 1008.4 |
| 20260505161907 | 22 | 345 | 8.0 | 19.3 | 0.00 | 0.00 | 0.00 | 89 | 1008.5 |